Time;durP1;ratioP1;P1;durP2;ratioP2;P2;SDS_P1;SDS_P2;PMS_P1;PMS_P2;Temp;Humidity;BMP_temperature;BMP_pressure;BME280_temperature;BME280_humidity;BME280_pressure;Samples;Min_cycle;Max_cycle;Signal;HPM_P1;HPM_P2
2021/03/16 00:02:02;;;;;;;13.00;2.58;;;6.40;99.90;;;;;;5006053;28;20482;-91
2021/03/16 00:04:46;;;;;;;16.83;3.28;;;6.50;99.90;;;;;;4982555;28;20060;-92
2021/03/16 00:07:12;;;;;;;14.10;2.28;;;6.40;99.90;;;;;;4991366;28;20049;-92
2021/03/16 00:09:43;;;;;;;17.25;2.50;;;6.50;99.90;;;;;;5007422;28;20389;-91
2021/03/16 00:12:15;;;;;;;17.05;2.53;;;6.40;99.90;;;;;;4966432;28;20145;-92
2021/03/16 00:15:04;;;;;;;21.63;2.70;;;6.50;99.90;;;;;;5004038;28;20107;-92
2021/03/16 00:17:45;;;;;;;20.42;3.05;;;6.50;99.90;;;;;;4984200;28;20033;-91
2021/03/16 00:20:37;;;;;;;15.98;2.25;;;6.50;99.90;;;;;;5003806;28;20076;-90
2021/03/16 00:23:29;;;;;;;16.17;2.40;;;6.50;99.90;;;;;;5002858;28;20033;-92
2021/03/16 00:26:06;;;;;;;23.95;3.05;;;6.50;99.90;;;;;;5008839;28;20433;-92
2021/03/16 00:28:37;;;;;;;18.95;2.25;;;6.40;99.90;;;;;;4982132;28;20457;-91
2021/03/16 00:31:09;;;;;;;17.67;2.70;;;6.50;99.90;;;;;;4990257;28;20034;-91
2021/03/16 00:33:45;;;;;;;13.40;2.17;;;6.50;99.90;;;;;;4987375;28;20514;-92
2021/03/16 00:36:12;;;;;;;13.38;2.75;;;6.40;99.90;;;;;;4986473;28;20486;-92
2021/03/16 00:38:40;;;;;;;10.18;2.35;;;6.30;99.90;;;;;;5003019;28;20051;-92
2021/03/16 00:41:07;;;;;;;23.35;3.08;;;6.30;99.90;;;;;;5001936;28;20061;-90
2021/03/16 00:43:37;;;;;;;14.38;2.30;;;6.20;99.90;;;;;;4999930;28;20081;-91
2021/03/16 00:46:03;;;;;;;7.63;1.55;;;6.20;99.90;;;;;;5000757;28;20482;-90
2021/03/16 00:48:30;;;;;;;16.13;2.38;;;6.20;99.90;;;;;;5003675;28;20033;-91
2021/03/16 00:51:01;;;;;;;14.80;1.70;;;6.20;99.90;;;;;;5012009;28;20065;-91
2021/03/16 00:53:31;;;;;;;18.48;2.67;;;6.30;99.90;;;;;;4999752;28;20050;-92
2021/03/16 00:56:08;;;;;;;19.05;3.00;;;6.30;99.90;;;;;;4999944;28;20037;-89
2021/03/16 00:58:43;;;;;;;16.05;2.58;;;6.30;99.90;;;;;;4996666;28;20057;-91
2021/03/16 01:01:44;;;;;;;12.90;2.03;;;6.30;99.90;;;;;;4988972;28;20257;-90
2021/03/16 01:04:13;;;;;;;13.00;2.22;;;6.30;99.90;;;;;;5017756;28;20486;-91
2021/03/16 01:06:55;;;;;;;;;;;;;;;;;;;;;
2021/03/16 01:09:28;;;;;;;13.50;2.03;;;6.30;99.90;;;;;;5013542;28;20031;-91
2021/03/16 01:11:57;;;;;;;15.20;2.40;;;6.30;99.90;;;;;;5006312;28;20460;-91
2021/03/16 01:14:36;;;;;;;9.70;1.65;;;6.30;99.90;;;;;;5002664;28;20668;-90
2021/03/16 01:17:14;;;;;;;10.27;1.98;;;6.20;99.90;;;;;;4974360;28;20041;-91
2021/03/16 01:20:11;;;;;;;11.63;1.63;;;6.20;99.90;;;;;;4972031;28;20044;-90
2021/03/16 01:22:49;;;;;;;13.40;1.77;;;6.30;99.90;;;;;;4995511;28;20039;-91
2021/03/16 01:25:24;;;;;;;11.13;1.48;;;6.20;99.90;;;;;;4985989;28;20068;-91
2021/03/16 01:28:23;;;;;;;11.93;1.63;;;6.30;99.90;;;;;;4999752;28;20045;-91
2021/03/16 01:30:57;;;;;;;12.15;2.20;;;6.30;99.90;;;;;;4998748;28;20133;-91
2021/03/16 01:33:35;;;;;;;11.80;1.88;;;6.30;99.90;;;;;;4992068;28;20034;-91
2021/03/16 01:36:10;;;;;;;11.63;2.17;;;6.30;99.90;;;;;;5009314;28;20378;-91
2021/03/16 01:38:51;;;;;;;8.65;1.40;;;6.40;99.90;;;;;;5002480;28;20034;-92
2021/03/16 01:41:47;;;;;;;11.07;1.30;;;6.40;99.90;;;;;;5022451;28;20045;-92
2021/03/16 01:44:28;;;;;;;13.57;1.70;;;6.30;99.90;;;;;;5020951;28;20547;-90
2021/03/16 01:47:03;;;;;;;14.40;2.17;;;6.30;99.90;;;;;;5001713;28;20038;-90
2021/03/16 01:49:49;;;;;;;10.02;1.30;;;6.30;99.90;;;;;;4982527;28;20547;-91
2021/03/16 01:52:18;;;;;;;12.40;1.73;;;6.30;99.90;;;;;;5002660;28;20041;-89
2021/03/16 01:54:51;;;;;;;9.45;1.50;;;6.30;99.90;;;;;;4982397;28;20144;-89
2021/03/16 01:57:41;;;;;;;11.15;1.50;;;6.30;99.90;;;;;;4990340;28;20041;-89
2021/03/16 02:00:10;;;;;;;13.73;1.45;;;6.40;99.90;;;;;;4999105;28;20557;-89
2021/03/16 02:02:43;;;;;;;7.32;1.17;;;6.30;99.90;;;;;;4983704;28;20068;-89
2021/03/16 02:05:26;;;;;;;9.13;2.15;;;6.30;99.90;;;;;;4998896;28;20026;-91
2021/03/16 02:08:27;;;;;;;11.77;1.80;;;6.30;99.90;;;;;;4995725;28;20132;-90
2021/03/16 02:11:25;;;;;;;12.07;1.55;;;6.20;99.90;;;;;;5017954;28;20410;-89
2021/03/16 02:14:39;;;;;;;12.60;1.40;;;6.30;99.90;;;;;;5023093;28;20041;-91
2021/03/16 02:17:26;;;;;;;10.93;1.73;;;6.30;99.90;;;;;;4970164;28;20041;-91
2021/03/16 02:20:20;;;;;;;;;;;;;;;;;;;;;
2021/03/16 02:23:01;;;;;;;12.63;2.08;;;6.30;99.90;;;;;;5016018;28;21065;-90
2021/03/16 02:26:00;;;;;;;11.07;1.40;;;6.30;99.90;;;;;;4979690;28;20040;-90
2021/03/16 02:29:07;;;;;;;7.22;1.15;;;6.30;99.90;;;;;;4998799;28;20117;-90
2021/03/16 02:31:42;;;;;;;11.25;2.08;;;6.30;99.90;;;;;;5014107;28;20033;-91
2021/03/16 02:34:26;;;;;;;10.77;1.80;;;6.30;99.90;;;;;;4987557;28;20050;-90
2021/03/16 02:36:57;;;;;;;15.07;2.38;;;6.30;99.90;;;;;;4989333;28;20049;-91
2021/03/16 02:39:40;;;;;;;9.98;1.67;;;6.30;99.90;;;;;;5003643;28;20037;-90
2021/03/16 02:42:20;;;;;;;5.88;1.20;;;6.20;99.90;;;;;;5005324;28;20105;-89
2021/03/16 02:44:58;;;;;;;11.65;1.85;;;6.20;99.90;;;;;;5012149;28;20044;-90
2021/03/16 02:47:26;;;;;;;9.80;1.25;;;6.20;99.90;;;;;;4999457;28;20053;-88
2021/03/16 02:49:54;;;;;;;9.75;1.30;;;6.30;99.90;;;;;;5006981;28;20039;-87
2021/03/16 02:52:43;;;;;;;10.27;2.00;;;6.30;99.90;;;;;;5006972;28;20037;-90
2021/03/16 02:55:20;;;;;;;12.43;1.98;;;6.30;99.90;;;;;;4997595;28;20034;-90
2021/03/16 02:58:11;;;;;;;8.98;1.80;;;6.30;99.90;;;;;;5007662;28;20129;-90
2021/03/16 03:00:42;;;;;;;12.77;1.85;;;6.20;99.90;;;;;;4995371;28;20061;-89
2021/03/16 03:03:44;;;;;;;;;;;;;;;;;;;;;
2021/03/16 03:06:25;;;;;;;8.73;1.52;;;6.20;99.90;;;;;;5005556;28;20044;-90
2021/03/16 03:12:17;;;;;;;9.27;1.27;;;6.20;99.90;;;;;;4996726;28;20073;-90
2021/03/16 03:15:29;;;;;;;11.50;1.70;;;6.20;99.90;;;;;;5013415;28;20042;-89
2021/03/16 03:18:38;;;;;;;6.90;1.25;;;6.20;99.90;;;;;;5000460;28;20049;-90
2021/03/16 03:22:09;;;;;;;;;;;;;;;;;;;;;
2021/03/16 03:25:25;;;;;;;9.82;1.92;;;6.20;99.90;;;;;;5012477;28;20479;-90
2021/03/16 03:28:24;;;;;;;7.18;1.17;;;6.10;99.90;;;;;;4947214;29;20468;-90
2021/03/16 03:31:35;;;;;;;8.88;1.45;;;6.10;99.90;;;;;;4996287;28;20050;-89
2021/03/16 03:34:05;;;;;;;7.88;1.10;;;6.10;99.90;;;;;;4995385;28;20100;-89
2021/03/16 03:36:48;;;;;;;8.45;1.75;;;6.20;99.90;;;;;;5002928;28;20061;-89
2021/03/16 03:39:25;;;;;;;5.70;1.08;;;6.20;99.90;;;;;;4999934;28;20030;-89
2021/03/16 03:41:52;;;;;;;5.50;0.90;;;6.20;99.90;;;;;;4999447;28;20081;-90
2021/03/16 03:44:31;;;;;;;8.68;1.35;;;6.20;99.90;;;;;;5007333;28;20049;-90
2021/03/16 03:47:10;;;;;;;7.97;0.98;;;6.20;99.90;;;;;;5000425;28;20048;-89
2021/03/16 03:49:55;;;;;;;5.38;0.80;;;6.20;99.90;;;;;;5023892;28;20059;-90
2021/03/16 03:52:43;;;;;;;5.22;1.00;;;6.20;99.90;;;;;;5023680;28;20122;-89
2021/03/16 03:55:16;;;;;;;5.95;0.95;;;6.20;99.90;;;;;;4999714;28;20067;-88
2021/03/16 03:58:00;;;;;;;5.45;1.42;;;6.20;99.90;;;;;;5005632;28;20057;-90
2021/03/16 04:00:42;;;;;;;6.35;0.90;;;6.20;99.90;;;;;;5005727;28;20043;-90
2021/03/16 04:03:34;;;;;;;9.52;1.67;;;6.20;99.90;;;;;;5014296;28;20033;-89
2021/03/16 04:06:30;;;;;;;6.80;1.20;;;6.20;99.90;;;;;;4995679;28;20508;-90
2021/03/16 04:09:36;;;;;;;;;;;;;;;;;;;;;
2021/03/16 04:12:34;;;;;;;9.77;1.13;;;6.20;99.90;;;;;;5026385;28;20032;-90
2021/03/16 04:15:29;;;;;;;8.68;1.02;;;6.20;99.90;;;;;;5015106;28;20049;-90
2021/03/16 04:18:21;;;;;;;8.30;0.98;;;6.30;99.90;;;;;;5026353;28;20084;-90
2021/03/16 04:20:55;;;;;;;8.23;2.08;;;6.20;99.90;;;;;;4987275;28;20099;-90
2021/03/16 04:24:10;;;;;;;;;;;;;;;;;;;;;
2021/03/16 04:27:02;;;;;;;10.82;2.00;;;6.20;99.90;;;;;;5016057;28;20038;-88
2021/03/16 04:29:37;;;;;;;7.47;1.85;;;6.20;99.90;;;;;;4988824;28;20044;-90
2021/03/16 04:32:11;;;;;;;8.07;1.67;;;6.20;99.90;;;;;;4975907;28;20129;-89
2021/03/16 04:35:01;;;;;;;10.85;1.55;;;6.20;99.90;;;;;;4997398;28;20034;-90
2021/03/16 04:37:37;;;;;;;7.47;1.23;;;6.20;99.90;;;;;;4989232;28;20037;-90
2021/03/16 04:40:13;;;;;;;5.45;1.23;;;6.10;99.90;;;;;;5008093;28;20036;-88
2021/03/16 04:42:53;;;;;;;13.30;1.63;;;6.20;99.90;;;;;;5030486;28;20053;-90
2021/03/16 04:46:00;;;;;;;11.15;1.90;;;6.10;99.90;;;;;;5019923;28;20473;-90
2021/03/16 04:48:38;;;;;;;6.57;1.73;;;6.10;99.90;;;;;;5004361;28;20093;-90
2021/03/16 04:51:19;;;;;;;8.10;1.63;;;6.10;99.90;;;;;;5014157;28;20382;-90
2021/03/16 04:54:23;;;;;;;10.75;1.50;;;6.10;99.90;;;;;;5008304;28;20049;-90
2021/03/16 04:56:54;;;;;;;14.98;2.53;;;6.10;99.90;;;;;;5000830;28;20092;-90
2021/03/16 04:59:26;;;;;;;7.45;1.63;;;6.20;99.90;;;;;;5003259;28;20425;-90
2021/03/16 05:02:06;;;;;;;6.28;1.80;;;6.10;99.90;;;;;;5017762;28;20061;-90
2021/03/16 05:04:47;;;;;;;9.15;1.52;;;6.20;99.90;;;;;;5034900;28;20033;-90
2021/03/16 05:07:26;;;;;;;7.25;1.15;;;6.10;99.90;;;;;;4982298;28;20120;-89
2021/03/16 05:10:25;;;;;;;10.30;1.65;;;6.10;99.90;;;;;;5015433;28;20041;-89
2021/03/16 05:13:06;;;;;;;11.27;1.15;;;6.10;99.90;;;;;;4998502;28;20049;-90
2021/03/16 05:16:07;;;;;;;13.60;1.67;;;6.10;99.90;;;;;;5024967;28;20034;-90
2021/03/16 05:19:06;;;;;;;10.93;1.70;;;6.10;99.90;;;;;;5011926;28;20072;-91
2021/03/16 05:21:51;;;;;;;12.38;1.42;;;6.10;99.90;;;;;;5007380;28;20056;-91
2021/03/16 05:24:50;;;;;;;7.45;1.20;;;6.20;99.90;;;;;;4972198;28;20068;-90
2021/03/16 05:28:17;;;;;;;9.77;1.77;;;6.10;99.90;;;;;;4916340;29;20119;-91
2021/03/16 05:31:17;;;;;;;9.73;2.47;;;6.10;99.90;;;;;;4841990;29;20174;-92
2021/03/16 05:34:41;;;;;;;;;;;;;;;;;;;;;
2021/03/16 05:37:27;;;;;;;9.95;1.42;;;6.10;99.90;;;;;;4888307;29;20128;-90
2021/03/16 05:40:44;;;;;;;11.70;1.60;;;6.10;99.90;;;;;;5008036;28;20034;-91
2021/03/16 05:43:50;;;;;;;11.52;1.70;;;6.10;99.90;;;;;;5026050;28;20096;-91
2021/03/16 05:46:48;;;;;;;13.30;1.55;;;6.10;99.90;;;;;;4995337;28;20053;-91
2021/03/16 05:49:28;;;;;;;10.35;1.77;;;6.10;99.90;;;;;;4989276;28;20089;-90
2021/03/16 05:52:20;;;;;;;10.60;1.50;;;6.10;99.90;;;;;;5005275;28;20037;-91
2021/03/16 05:55:07;;;;;;;;;;;;;;;;;;;;;
2021/03/16 05:58:29;;;;;;;;;;;;;;;;;;;;;
2021/03/16 06:01:35;;;;;;;;;;;;;;;;;;;;;
2021/03/16 06:11:50;;;;;;;;;;;;;;;;;;;;;
2021/03/16 06:14:50;;;;;;;10.40;1.48;;;6.10;99.90;;;;;;4863401;29;20041;-93
2021/03/16 06:21:32;;;;;;;12.65;2.00;;;6.20;99.90;;;;;;4910453;29;20511;-92
2021/03/16 06:24:50;;;;;;;;;;;;;;;;;;;;;
2021/03/16 06:31:58;;;;;;;12.70;2.38;;;6.30;99.90;;;;;;4786420;29;20043;-91
2021/03/16 06:35:36;;;;;;;;;;;;;;;;;;;;;
2021/03/16 06:38:45;;;;;;;;;;;;;;;;;;;;;
2021/03/16 06:41:48;;;;;;;15.70;2.15;;;6.50;99.90;;;;;;4806295;29;20178;-91
2021/03/16 06:44:55;;;;;;;;;;;;;;;;;;;;;
2021/03/16 06:47:41;;;;;;;14.38;1.98;;;6.50;99.90;;;;;;4825899;29;20156;-90
2021/03/16 06:50:55;;;;;;;11.25;2.15;;;6.50;99.90;;;;;;4833961;29;20052;-91
2021/03/16 06:54:09;;;;;;;;;;;;;;;;;;;;;
2021/03/16 06:57:06;;;;;;;8.82;1.77;;;6.60;99.90;;;;;;4855429;29;20045;-91
2021/03/16 07:00:23;;;;;;;;;;;;;;;;;;;;;
2021/03/16 07:07:16;;;;;;;;;;;;;;;;;;;;;
2021/03/16 07:10:59;;;;;;;10.75;2.13;;;6.80;99.90;;;;;;4893646;29;20143;-90
2021/03/16 07:17:59;;;;;;;;;;;;;;;;;;;;;
2021/03/16 07:25:13;;;;;;;14.15;2.17;;;6.90;99.90;;;;;;4899887;29;20041;-90
2021/03/16 07:35:14;;;;;;;;;;;;;;;;;;;;;
2021/03/16 08:04:38;;;;;;;;;;;;;;;;;;;;;
2021/03/16 08:38:27;;;;;;;10.07;1.58;;;8.00;99.90;;;;;;5052690;27;20767;-89
2021/03/16 08:41:16;;;;;;;9.63;1.83;;;8.10;99.90;;;;;;5036200;28;20036;-89
2021/03/16 08:43:51;;;;;;;12.27;3.10;;;8.20;99.90;;;;;;5038197;28;20026;-87
2021/03/16 08:46:32;;;;;;;9.27;1.50;;;8.20;99.90;;;;;;5030544;28;20364;-88
2021/03/16 08:48:58;;;;;;;14.15;1.95;;;8.20;99.90;;;;;;5047764;28;20029;-90
2021/03/16 08:51:26;;;;;;;10.93;2.17;;;8.30;99.90;;;;;;5049511;28;20470;-87
2021/03/16 08:53:52;;;;;;;12.02;2.42;;;8.40;99.90;;;;;;5050141;28;20052;-92
2021/03/16 08:56:22;;;;;;;7.70;1.60;;;8.40;99.90;;;;;;5050785;28;20028;-90
2021/03/16 08:58:55;;;;;;;9.55;1.80;;;8.40;99.90;;;;;;5050213;28;20090;-90
2021/03/16 09:01:31;;;;;;;11.95;1.63;;;8.40;99.90;;;;;;5029410;28;20664;-89
2021/03/16 09:04:08;;;;;;;10.98;1.95;;;8.40;99.90;;;;;;5025568;28;20033;-90
2021/03/16 09:06:34;;;;;;;12.43;2.33;;;8.40;99.90;;;;;;5032048;28;20036;-88
2021/03/16 09:08:59;;;;;;;17.98;2.80;;;8.40;99.90;;;;;;5035197;28;20057;-90
2021/03/16 09:11:40;;;;;;;11.45;2.15;;;8.40;99.90;;;;;;5030009;28;20056;-90
2021/03/16 09:14:15;;;;;;;13.45;2.30;;;8.50;99.90;;;;;;5039804;28;20075;-91
2021/03/16 09:16:46;;;;;;;16.00;2.08;;;8.60;99.90;;;;;;5049412;28;20115;-92
2021/03/16 09:19:17;;;;;;;13.27;2.38;;;8.70;99.90;;;;;;5049681;28;20047;-91
2021/03/16 09:21:52;;;;;;;11.32;2.28;;;8.80;99.90;;;;;;5050186;28;20036;-90
2021/03/16 09:24:24;;;;;;;9.38;2.13;;;9.00;99.90;;;;;;5049603;28;20032;-89
2021/03/16 09:26:59;;;;;;;6.45;2.10;;;9.00;99.90;;;;;;5082815;28;20067;-90
2021/03/16 09:29:36;;;;;;;7.70;1.45;;;9.20;99.90;;;;;;5049436;28;20028;-90
2021/03/16 09:32:08;;;;;;;5.43;1.13;;;9.40;99.90;;;;;;5048887;28;20128;-90
2021/03/16 09:34:36;;;;;;;6.95;1.33;;;9.60;99.90;;;;;;5049321;28;20017;-89
2021/03/16 09:37:12;;;;;;;9.55;1.50;;;9.70;99.90;;;;;;5049064;28;20084;-90
2021/03/16 09:39:38;;;;;;;6.75;1.67;;;9.80;99.90;;;;;;5049044;28;20472;-91
2021/03/16 09:42:06;;;;;;;10.93;1.77;;;9.70;99.90;;;;;;5049165;28;20017;-88
2021/03/16 09:44:35;;;;;;;12.10;2.22;;;9.60;99.90;;;;;;5048234;28;20060;-89
2021/03/16 09:47:02;;;;;;;13.35;3.47;;;9.50;99.90;;;;;;5049555;28;20060;-89
2021/03/16 09:49:30;;;;;;;9.90;1.48;;;9.40;99.90;;;;;;5036685;28;20022;-91
2021/03/16 09:52:01;;;;;;;9.15;1.45;;;9.30;99.90;;;;;;5036166;28;20025;-90
2021/03/16 09:54:33;;;;;;;12.07;1.80;;;9.30;99.90;;;;;;5035679;28;20120;-89
2021/03/16 09:56:58;;;;;;;10.35;2.10;;;9.20;99.90;;;;;;5035474;28;20037;-90
2021/03/16 09:59:24;;;;;;;9.18;1.42;;;9.10;99.90;;;;;;5035206;28;20021;-90
2021/03/16 10:01:50;;;;;;;7.03;1.25;;;9.10;99.90;;;;;;5035450;28;20375;-90
2021/03/16 10:04:15;;;;;;;7.95;1.40;;;9.10;99.90;;;;;;5034714;28;20026;-89
2021/03/16 10:06:44;;;;;;;7.95;1.30;;;9.10;99.90;;;;;;5035933;28;20468;-88
2021/03/16 10:09:18;;;;;;;8.52;1.52;;;9.10;99.90;;;;;;5034917;28;20049;-89
2021/03/16 10:11:44;;;;;;;7.90;1.83;;;9.10;99.90;;;;;;5034666;28;20052;-90
2021/03/16 10:14:10;;;;;;;10.48;1.73;;;9.10;99.90;;;;;;5035526;28;20120;-90
2021/03/16 10:16:36;;;;;;;7.45;1.20;;;9.10;99.90;;;;;;5035183;28;20061;-90
2021/03/16 10:19:02;;;;;;;11.15;1.50;;;9.10;99.90;;;;;;5036534;28;20180;-92
2021/03/16 10:21:32;;;;;;;11.73;1.88;;;9.30;99.90;;;;;;5035542;28;20028;-91
2021/03/16 10:24:01;;;;;;;8.30;1.35;;;9.30;99.90;;;;;;5034777;28;20029;-89
2021/03/16 10:26:27;;;;;;;8.23;1.10;;;9.30;99.90;;;;;;5034772;28;20029;-89
2021/03/16 10:28:52;;;;;;;9.73;1.73;;;9.30;99.90;;;;;;5034843;28;20030;-89
2021/03/16 10:31:24;;;;;;;11.18;1.50;;;9.30;99.90;;;;;;5034536;28;20021;-89
2021/03/16 10:33:51;;;;;;;9.35;1.30;;;9.30;99.90;;;;;;5034683;28;20017;-90
2021/03/16 10:36:18;;;;;;;7.32;1.27;;;9.40;99.90;;;;;;5034206;28;20108;-89
2021/03/16 10:38:48;;;;;;;7.53;1.55;;;9.40;99.90;;;;;;5030009;28;20046;-90
2021/03/16 10:41:14;;;;;;;5.05;1.35;;;9.40;99.90;;;;;;5034755;28;20593;-90
2021/03/16 10:43:40;;;;;;;9.32;1.40;;;9.50;99.90;;;;;;5034948;28;20025;-89
2021/03/16 10:46:05;;;;;;;7.00;1.30;;;9.80;99.90;;;;;;5035024;28;20025;-90
2021/03/16 10:48:31;;;;;;;9.48;1.95;;;10.20;99.90;;;;;;5035157;28;20035;-90
2021/03/16 10:50:56;;;;;;;5.40;1.20;;;10.90;99.90;;;;;;5035433;28;20032;-92
2021/03/16 10:53:22;;;;;;;3.35;1.00;;;11.40;99.90;;;;;;5035149;28;20029;-90
2021/03/16 10:55:48;;;;;;;6.15;0.90;;;12.30;99.00;;;;;;5034893;28;20032;-89
2021/03/16 10:58:13;;;;;;;7.13;1.15;;;12.90;98.20;;;;;;5034536;28;20029;-91
2021/03/16 11:00:39;;;;;;;6.97;1.60;;;13.60;96.70;;;;;;5033656;28;20116;-89
2021/03/16 11:03:05;;;;;;;5.53;1.00;;;13.70;95.00;;;;;;5034506;28;20167;-90
2021/03/16 11:05:31;;;;;;;6.85;1.30;;;13.40;94.70;;;;;;5034294;28;20494;-89
2021/03/16 11:07:58;;;;;;;6.57;1.10;;;12.90;93.80;;;;;;5034090;28;20029;-89
2021/03/16 11:10:24;;;;;;;4.72;1.08;;;12.60;94.00;;;;;;5034518;28;20104;-90
2021/03/16 11:12:50;;;;;;;5.13;1.15;;;12.40;93.70;;;;;;5034670;28;20041;-90
2021/03/16 11:15:15;;;;;;;7.00;1.25;;;11.90;93.80;;;;;;5034354;28;20101;-88
2021/03/16 11:17:41;;;;;;;10.40;0.90;;;11.50;94.60;;;;;;5033847;28;20037;-89
2021/03/16 11:20:07;;;;;;;5.03;0.95;;;11.20;95.00;;;;;;5033290;28;20018;-88
2021/03/16 11:22:33;;;;;;;7.10;1.17;;;11.20;95.50;;;;;;5034149;28;20025;-89
2021/03/16 11:24:59;;;;;;;5.93;0.75;;;11.20;95.40;;;;;;5033738;28;20040;-89
2021/03/16 11:27:24;;;;;;;7.60;1.35;;;11.70;95.70;;;;;;5018779;28;20431;-88
2021/03/16 11:29:50;;;;;;;4.50;0.93;;;12.20;94.70;;;;;;5016634;28;20026;-86
2021/03/16 11:32:16;;;;;;;7.30;1.08;;;12.20;93.30;;;;;;5024911;28;20025;-88
2021/03/16 11:34:41;;;;;;;5.20;1.13;;;12.00;92.70;;;;;;5033997;28;20030;-89
2021/03/16 11:37:07;;;;;;;5.35;0.90;;;11.70;93.10;;;;;;5033373;28;20092;-90
2021/03/16 11:39:33;;;;;;;6.35;1.17;;;11.70;93.30;;;;;;5033627;28;20025;-91
2021/03/16 11:41:58;;;;;;;6.45;1.02;;;11.60;92.90;;;;;;5026440;28;20043;-90
2021/03/16 11:44:24;;;;;;;5.88;1.38;;;11.60;93.30;;;;;;5033405;28;20028;-88
2021/03/16 11:46:50;;;;;;;6.50;1.10;;;11.40;93.40;;;;;;5032873;28;20036;-89
2021/03/16 11:49:16;;;;;;;5.80;1.63;;;11.30;93.50;;;;;;5016924;28;20005;-90
2021/03/16 11:51:41;;;;;;;6.05;1.05;;;11.10;93.90;;;;;;5033231;28;20498;-89
2021/03/16 11:54:07;;;;;;;11.07;1.60;;;11.00;94.50;;;;;;5033106;28;20051;-90
2021/03/16 11:56:33;;;;;;;7.30;1.60;;;10.80;95.10;;;;;;5033209;28;20032;-90
2021/03/16 11:58:58;;;;;;;5.20;1.30;;;10.60;95.50;;;;;;5032907;28;20522;-90
2021/03/16 12:01:24;;;;;;;8.50;1.42;;;10.50;96.10;;;;;;5032716;28;20035;-88
2021/03/16 12:03:49;;;;;;;9.77;1.77;;;10.50;96.80;;;;;;5032376;28;20411;-88
2021/03/16 12:06:15;;;;;;;7.97;1.85;;;10.50;96.80;;;;;;5030867;28;20033;-88
2021/03/16 12:08:41;;;;;;;5.35;1.40;;;10.50;97.00;;;;;;5026906;28;20026;-89
2021/03/16 12:11:07;;;;;;;6.63;1.15;;;10.60;97.10;;;;;;5029192;28;20017;-90
2021/03/16 12:13:33;;;;;;;8.43;1.92;;;10.60;97.10;;;;;;5033410;28;20117;-90
2021/03/16 12:15:59;;;;;;;9.15;1.42;;;10.70;97.10;;;;;;5033762;28;20032;-89
2021/03/16 12:18:24;;;;;;;11.27;1.88;;;10.80;97.10;;;;;;5032386;28;20057;-89
2021/03/16 12:20:50;;;;;;;5.60;1.20;;;10.80;96.70;;;;;;5028035;28;20021;-90
2021/03/16 12:23:17;;;;;;;10.25;1.65;;;11.00;97.00;;;;;;5034170;28;20468;-89
2021/03/16 12:25:43;;;;;;;5.43;1.38;;;11.20;96.80;;;;;;5031622;28;20036;-91
2021/03/16 12:28:09;;;;;;;5.70;1.35;;;11.30;96.60;;;;;;5033166;28;20026;-91
2021/03/16 12:30:37;;;;;;;4.28;1.10;;;11.30;96.40;;;;;;5032867;28;20072;-91
2021/03/16 12:33:04;;;;;;;5.70;1.13;;;11.30;96.30;;;;;;5033682;28;20092;-91
2021/03/16 12:35:32;;;;;;;5.95;1.20;;;11.30;96.10;;;;;;5033589;28;20013;-91
2021/03/16 12:37:57;;;;;;;6.05;1.30;;;11.30;96.10;;;;;;5032531;28;20495;-92
2021/03/16 12:40:23;;;;;;;4.80;0.80;;;11.40;96.10;;;;;;5031368;28;20052;-91
2021/03/16 12:42:49;;;;;;;7.55;1.30;;;11.50;96.00;;;;;;5032290;28;20799;-91
2021/03/16 12:45:20;;;;;;;8.73;1.33;;;11.50;95.80;;;;;;5033557;28;20022;-92
2021/03/16 12:47:50;;;;;;;5.40;0.90;;;11.40;95.60;;;;;;5013565;28;20029;-91
2021/03/16 12:50:16;;;;;;;6.40;1.13;;;11.30;95.10;;;;;;5014440;28;20025;-91
2021/03/16 12:52:58;;;;;;;4.57;0.82;;;11.10;95.50;;;;;;5013686;28;20022;-92
2021/03/16 12:57:52;;;;;;;5.70;1.10;;;10.80;95.70;;;;;;5079937;23;20192;-90
2021/03/16 13:00:19;;;;;;;7.13;1.20;;;10.70;95.90;;;;;;5012203;28;20037;-90
2021/03/16 13:02:48;;;;;;;6.10;1.70;;;10.60;96.80;;;;;;5011135;28;20379;-93
2021/03/16 13:05:14;;;;;;;8.05;1.60;;;10.50;97.80;;;;;;5012199;28;20479;-88
2021/03/16 13:07:39;;;;;;;4.30;1.45;;;10.40;98.60;;;;;;5008989;28;20018;-90
2021/03/16 13:10:06;;;;;;;5.68;1.55;;;10.20;99.10;;;;;;5002955;28;20029;-91
2021/03/16 13:12:47;;;;;;;5.03;1.42;;;10.00;99.90;;;;;;5012679;28;20032;-92
2021/03/16 13:15:12;;;;;;;5.93;1.60;;;9.80;99.90;;;;;;5009942;28;20452;-88
2021/03/16 13:17:38;;;;;;;8.05;1.63;;;9.60;99.90;;;;;;5028947;28;20227;-89
2021/03/16 13:20:09;;;;;;;9.20;2.28;;;9.60;99.90;;;;;;5028780;28;20040;-87
2021/03/16 13:22:34;;;;;;;7.78;2.15;;;9.60;99.90;;;;;;5022930;28;20026;-88
2021/03/16 13:25:00;;;;;;;6.93;1.75;;;9.60;99.90;;;;;;5016343;28;20444;-87
2021/03/16 13:27:26;;;;;;;7.00;1.52;;;9.60;99.90;;;;;;5016955;28;20053;-87
2021/03/16 13:29:52;;;;;;;6.55;1.80;;;9.70;99.90;;;;;;5015517;28;20025;-88
2021/03/16 13:32:17;;;;;;;7.53;1.50;;;9.80;99.90;;;;;;5015527;28;20032;-87
2021/03/16 13:34:43;;;;;;;7.82;1.40;;;9.80;99.90;;;;;;5015259;28;20025;-87
2021/03/16 13:37:09;;;;;;;4.90;1.23;;;9.90;99.90;;;;;;5017120;28;20033;-87
2021/03/16 13:39:34;;;;;;;6.57;1.40;;;9.90;99.90;;;;;;5025739;28;20068;-86
2021/03/16 13:42:00;;;;;;;5.20;1.38;;;9.80;99.90;;;;;;5012097;28;20504;-89
2021/03/16 13:44:26;;;;;;;5.80;1.60;;;9.60;99.90;;;;;;5016029;28;20571;-87
2021/03/16 13:46:51;;;;;;;5.10;1.38;;;9.40;99.90;;;;;;5014703;28;20022;-86
2021/03/16 13:49:18;;;;;;;5.10;1.38;;;9.30;99.90;;;;;;5008436;28;20034;-88
2021/03/16 13:51:43;;;;;;;3.35;1.20;;;9.10;99.90;;;;;;5012894;28;20076;-86
2021/03/16 13:54:09;;;;;;;5.97;1.30;;;9.00;99.90;;;;;;5015776;28;20049;-89
2021/03/16 13:56:34;;;;;;;6.45;1.48;;;8.80;99.90;;;;;;5013438;28;20173;-87
2021/03/16 13:59:00;;;;;;;3.55;1.20;;;8.60;99.90;;;;;;5016130;28;20064;-87
2021/03/16 14:01:26;;;;;;;6.35;1.20;;;8.50;99.90;;;;;;5030886;28;20022;-89
2021/03/16 14:03:52;;;;;;;4.90;1.10;;;8.30;99.90;;;;;;5016798;28;20010;-88
2021/03/16 14:06:17;;;;;;;4.10;1.25;;;8.30;99.90;;;;;;5014833;28;20053;-88
2021/03/16 14:08:43;;;;;;;3.90;1.00;;;8.20;99.90;;;;;;5033601;28;20080;-88
2021/03/16 14:11:08;;;;;;;5.68;1.20;;;8.20;99.90;;;;;;5014264;28;20054;-87
2021/03/16 14:13:34;;;;;;;5.70;0.98;;;8.10;99.90;;;;;;5000110;28;20049;-89
2021/03/16 14:16:00;;;;;;;5.70;0.90;;;8.10;99.90;;;;;;5031047;28;20036;-86
2021/03/16 14:18:25;;;;;;;3.80;1.10;;;8.10;99.90;;;;;;5014247;28;20026;-88
2021/03/16 14:20:51;;;;;;;5.25;1.50;;;8.10;99.90;;;;;;5014645;28;20025;-87
2021/03/16 14:23:17;;;;;;;2.85;0.88;;;8.10;99.90;;;;;;5016948;28;20072;-89
2021/03/16 14:25:43;;;;;;;5.05;1.17;;;8.20;99.90;;;;;;5014313;28;20045;-89
2021/03/16 14:28:09;;;;;;;2.58;0.88;;;8.20;99.90;;;;;;5015902;28;20021;-88
2021/03/16 14:30:35;;;;;;;2.55;0.85;;;8.10;99.90;;;;;;5015947;28;20029;-89
2021/03/16 14:33:01;;;;;;;3.55;0.90;;;8.10;99.90;;;;;;5012822;28;20473;-87
2021/03/16 14:35:26;;;;;;;4.50;1.33;;;8.10;99.90;;;;;;5010491;28;20046;-87
2021/03/16 14:37:52;;;;;;;3.25;1.17;;;8.20;99.90;;;;;;5011977;28;20041;-89
2021/03/16 14:40:17;;;;;;;2.80;1.05;;;8.20;99.90;;;;;;5014747;28;20022;-88
2021/03/16 14:42:45;;;;;;;4.50;1.23;;;8.30;99.90;;;;;;5015833;28;20018;-90
2021/03/16 14:45:10;;;;;;;6.40;1.50;;;8.30;99.90;;;;;;5015942;28;20061;-88
2021/03/16 14:47:36;;;;;;;3.30;1.10;;;8.30;99.90;;;;;;5016140;28;20042;-90
2021/03/16 14:50:43;;;;;;;4.25;0.98;;;8.30;99.90;;;;;;5015906;28;20376;-90
2021/03/16 14:53:09;;;;;;;3.58;1.00;;;8.30;99.90;;;;;;5030918;28;20076;-91
2021/03/16 14:55:34;;;;;;;4.40;1.40;;;8.30;99.90;;;;;;5012591;28;20026;-88
2021/03/16 14:58:00;;;;;;;4.35;1.10;;;8.30;99.90;;;;;;5030210;28;20116;-89
2021/03/16 15:00:25;;;;;;;3.80;1.00;;;8.20;99.90;;;;;;5014576;28;20022;-88
2021/03/16 15:02:51;;;;;;;3.05;0.98;;;8.20;99.90;;;;;;5015619;28;20030;-88
2021/03/16 15:05:17;;;;;;;3.88;1.25;;;8.10;99.90;;;;;;5015062;28;20018;-87
2021/03/16 15:07:43;;;;;;;5.45;1.70;;;8.00;99.90;;;;;;5021004;28;20095;-91
2021/03/16 15:10:14;;;;;;;3.75;1.10;;;8.00;99.90;;;;;;5025483;28;20018;-93
2021/03/16 15:12:40;;;;;;;2.53;1.10;;;7.90;99.90;;;;;;5026113;28;20448;-91
2021/03/16 15:15:07;;;;;;;3.58;0.90;;;7.90;99.90;;;;;;5014570;28;20076;-88
2021/03/16 15:17:32;;;;;;;1.55;0.85;;;7.90;99.90;;;;;;5017312;28;20391;-88
2021/03/16 15:19:58;;;;;;;3.70;1.42;;;7.80;99.90;;;;;;5012443;28;20025;-89
2021/03/16 15:22:23;;;;;;;2.60;1.10;;;7.80;99.90;;;;;;5013740;28;20030;-90
2021/03/16 15:24:53;;;;;;;2.10;0.98;;;7.90;99.90;;;;;;5013085;28;20026;-90
2021/03/16 15:27:19;;;;;;;2.40;1.42;;;7.90;99.90;;;;;;5014154;28;20034;-91
2021/03/16 15:29:44;;;;;;;2.10;1.20;;;8.00;99.90;;;;;;5009673;28;20513;-89
2021/03/16 15:32:11;;;;;;;2.30;1.20;;;8.00;99.90;;;;;;5005318;28;20484;-90
2021/03/16 15:34:36;;;;;;;3.28;1.13;;;7.90;99.90;;;;;;5013119;28;20117;-89
2021/03/16 15:37:02;;;;;;;4.00;0.95;;;7.90;99.90;;;;;;5013658;28;20458;-90
2021/03/16 15:39:28;;;;;;;3.10;0.90;;;7.90;99.90;;;;;;5015628;28;20030;-89
2021/03/16 15:41:54;;;;;;;2.67;0.90;;;7.90;99.90;;;;;;5014516;28;20030;-89
2021/03/16 15:44:23;;;;;;;2.13;1.05;;;7.90;99.90;;;;;;5030167;28;20022;-89
2021/03/16 15:46:48;;;;;;;2.97;1.10;;;7.90;99.90;;;;;;5013358;28;20037;-90